Terminal Aerodrome Forecast
Issued by NWS

Home | Current Version | Previous Version | Text Only | Print | Product List | Glossary On
Versions: 1 2 3 4 5 6 7 8 9 10 11 12 13 14
910
FTUS44 KTSA 311319 AAA
TAFRVS
TAF AMD
KRVS 311319Z 3113/0112 VRB03KT 3SM BR OVC002
     FM311400 13005KT 6SM BR VCTS SCT005 OVC015CB
      TEMPO 3114/3118 4SM -TSRA BKN005CB
     FM311800 17008KT P6SM BKN045
     FM010000 19006KT P6SM VCTS BKN080CB PROB30 0106/0112 4SM -TSRA
      BKN040CB=

USA.gov is the U.S. government's official web portal to all federal, state and local government web resources and services.